sensor_id;sensor_type;location;lat;lon;timestamp;P1;durP1;ratioP1;P2;durP2;ratioP2
10126;SDS011;13080;42.608;23.362;2023-10-19T00:01:26;12.63;;;9.27;;
10126;SDS011;13080;42.608;23.362;2023-10-19T00:03:53;15.02;;;8.77;;
10126;SDS011;13080;42.608;23.362;2023-10-19T00:06:21;12.55;;;7.95;;
10126;SDS011;13080;42.608;23.362;2023-10-19T00:08:48;11.02;;;6.90;;
10126;SDS011;13080;42.608;23.362;2023-10-19T00:11:15;16.13;;;8.63;;
10126;SDS011;13080;42.608;23.362;2023-10-19T00:13:49;15.70;;;8.40;;
10126;SDS011;13080;42.608;23.362;2023-10-19T00:18:44;12.48;;;7.40;;
10126;SDS011;13080;42.608;23.362;2023-10-19T00:21:13;14.63;;;7.25;;
10126;SDS011;13080;42.608;23.362;2023-10-19T00:26:12;14.38;;;7.07;;
10126;SDS011;13080;42.608;23.362;2023-10-19T00:28:44;11.20;;;6.93;;
10126;SDS011;13080;42.608;23.362;2023-10-19T00:31:11;13.13;;;7.40;;
10126;SDS011;13080;42.608;23.362;2023-10-19T00:33:38;12.18;;;7.65;;
10126;SDS011;13080;42.608;23.362;2023-10-19T00:36:07;13.80;;;7.53;;
10126;SDS011;13080;42.608;23.362;2023-10-19T00:38:38;12.98;;;7.18;;
10126;SDS011;13080;42.608;23.362;2023-10-19T00:41:05;10.40;;;6.75;;
10126;SDS011;13080;42.608;23.362;2023-10-19T00:43:37;11.88;;;6.78;;
10126;SDS011;13080;42.608;23.362;2023-10-19T00:46:09;10.45;;;6.60;;
10126;SDS011;13080;42.608;23.362;2023-10-19T00:48:40;9.85;;;7.13;;
10126;SDS011;13080;42.608;23.362;2023-10-19T00:51:13;11.38;;;6.95;;
10126;SDS011;13080;42.608;23.362;2023-10-19T00:53:52;12.63;;;7.20;;
10126;SDS011;13080;42.608;23.362;2023-10-19T00:56:21;11.43;;;7.25;;
10126;SDS011;13080;42.608;23.362;2023-10-19T00:58:51;12.10;;;6.43;;
10126;SDS011;13080;42.608;23.362;2023-10-19T01:01:25;15.10;;;7.05;;
10126;SDS011;13080;42.608;23.362;2023-10-19T01:03:55;10.27;;;6.38;;
10126;SDS011;13080;42.608;23.362;2023-10-19T01:06:24;12.13;;;7.28;;
10126;SDS011;13080;42.608;23.362;2023-10-19T01:08:56;12.27;;;7.22;;
10126;SDS011;13080;42.608;23.362;2023-10-19T01:11:23;14.75;;;7.60;;
10126;SDS011;13080;42.608;23.362;2023-10-19T01:13:53;10.48;;;6.32;;
10126;SDS011;13080;42.608;23.362;2023-10-19T01:16:20;10.48;;;6.95;;
10126;SDS011;13080;42.608;23.362;2023-10-19T01:18:48;12.32;;;7.25;;
10126;SDS011;13080;42.608;23.362;2023-10-19T01:21:19;11.75;;;6.88;;
10126;SDS011;13080;42.608;23.362;2023-10-19T01:23:52;14.18;;;7.93;;
10126;SDS011;13080;42.608;23.362;2023-10-19T01:26:19;11.93;;;6.95;;
10126;SDS011;13080;42.608;23.362;2023-10-19T01:28:51;15.88;;;7.95;;
10126;SDS011;13080;42.608;23.362;2023-10-19T01:31:23;24.63;;;11.30;;
10126;SDS011;13080;42.608;23.362;2023-10-19T01:33:56;16.35;;;8.88;;
10126;SDS011;13080;42.608;23.362;2023-10-19T01:36:24;12.45;;;7.40;;
10126;SDS011;13080;42.608;23.362;2023-10-19T01:38:53;13.18;;;7.18;;
10126;SDS011;13080;42.608;23.362;2023-10-19T01:41:21;16.45;;;9.18;;
10126;SDS011;13080;42.608;23.362;2023-10-19T01:43:48;10.27;;;6.93;;
10126;SDS011;13080;42.608;23.362;2023-10-19T01:46:18;14.05;;;6.88;;
10126;SDS011;13080;42.608;23.362;2023-10-19T01:48:49;12.95;;;7.47;;
10126;SDS011;13080;42.608;23.362;2023-10-19T01:51:20;11.10;;;6.57;;
10126;SDS011;13080;42.608;23.362;2023-10-19T01:53:47;12.27;;;7.80;;
10126;SDS011;13080;42.608;23.362;2023-10-19T01:56:16;13.23;;;7.05;;
10126;SDS011;13080;42.608;23.362;2023-10-19T01:58:44;11.40;;;7.03;;
10126;SDS011;13080;42.608;23.362;2023-10-19T02:01:12;12.70;;;7.35;;
10126;SDS011;13080;42.608;23.362;2023-10-19T02:03:45;11.23;;;6.78;;
10126;SDS011;13080;42.608;23.362;2023-10-19T02:06:14;15.40;;;7.95;;
10126;SDS011;13080;42.608;23.362;2023-10-19T02:08:45;13.63;;;7.28;;
10126;SDS011;13080;42.608;23.362;2023-10-19T02:11:18;14.50;;;7.85;;
10126;SDS011;13080;42.608;23.362;2023-10-19T02:13:47;14.27;;;8.15;;
10126;SDS011;13080;42.608;23.362;2023-10-19T02:16:15;15.98;;;8.98;;
10126;SDS011;13080;42.608;23.362;2023-10-19T02:18:41;15.32;;;9.35;;
10126;SDS011;13080;42.608;23.362;2023-10-19T02:21:09;15.48;;;9.48;;
10126;SDS011;13080;42.608;23.362;2023-10-19T02:23:37;14.02;;;8.52;;
10126;SDS011;13080;42.608;23.362;2023-10-19T02:26:03;17.00;;;9.55;;
10126;SDS011;13080;42.608;23.362;2023-10-19T02:28:32;14.43;;;8.27;;
10126;SDS011;13080;42.608;23.362;2023-10-19T02:31:02;17.30;;;9.88;;
10126;SDS011;13080;42.608;23.362;2023-10-19T02:33:37;15.23;;;8.75;;
10126;SDS011;13080;42.608;23.362;2023-10-19T02:36:04;14.90;;;8.70;;
10126;SDS011;13080;42.608;23.362;2023-10-19T02:38:38;14.45;;;8.25;;
10126;SDS011;13080;42.608;23.362;2023-10-19T02:41:06;14.15;;;8.65;;
10126;SDS011;13080;42.608;23.362;2023-10-19T02:43:36;13.95;;;9.13;;
10126;SDS011;13080;42.608;23.362;2023-10-19T02:46:03;10.85;;;8.02;;
10126;SDS011;13080;42.608;23.362;2023-10-19T02:48:29;12.95;;;8.82;;
10126;SDS011;13080;42.608;23.362;2023-10-19T02:50:57;13.68;;;7.90;;
10126;SDS011;13080;42.608;23.362;2023-10-19T02:53:31;11.93;;;7.97;;
10126;SDS011;13080;42.608;23.362;2023-10-19T02:55:59;13.90;;;8.90;;
10126;SDS011;13080;42.608;23.362;2023-10-19T02:58:36;11.95;;;8.20;;
10126;SDS011;13080;42.608;23.362;2023-10-19T03:01:11;12.60;;;8.13;;
10126;SDS011;13080;42.608;23.362;2023-10-19T03:03:37;12.85;;;8.55;;
10126;SDS011;13080;42.608;23.362;2023-10-19T03:06:04;14.88;;;8.82;;
10126;SDS011;13080;42.608;23.362;2023-10-19T03:08:31;16.50;;;7.50;;
10126;SDS011;13080;42.608;23.362;2023-10-19T03:11:00;12.10;;;7.18;;
10126;SDS011;13080;42.608;23.362;2023-10-19T03:13:29;8.73;;;6.85;;
10126;SDS011;13080;42.608;23.362;2023-10-19T03:15:58;12.45;;;7.95;;
10126;SDS011;13080;42.608;23.362;2023-10-19T03:18:25;10.75;;;6.47;;
10126;SDS011;13080;42.608;23.362;2023-10-19T03:20:53;11.00;;;6.55;;
10126;SDS011;13080;42.608;23.362;2023-10-19T03:25:52;10.45;;;6.55;;
10126;SDS011;13080;42.608;23.362;2023-10-19T03:28:37;10.43;;;5.95;;
10126;SDS011;13080;42.608;23.362;2023-10-19T03:31:07;10.30;;;6.13;;
10126;SDS011;13080;42.608;23.362;2023-10-19T03:33:35;13.93;;;6.72;;
10126;SDS011;13080;42.608;23.362;2023-10-19T03:36:05;12.20;;;6.30;;
10126;SDS011;13080;42.608;23.362;2023-10-19T03:38:38;11.52;;;7.40;;
10126;SDS011;13080;42.608;23.362;2023-10-19T03:41:05;10.13;;;6.43;;
10126;SDS011;13080;42.608;23.362;2023-10-19T03:43:34;10.85;;;6.63;;
10126;SDS011;13080;42.608;23.362;2023-10-19T03:46:06;10.15;;;6.53;;
10126;SDS011;13080;42.608;23.362;2023-10-19T03:48:49;9.80;;;6.60;;
10126;SDS011;13080;42.608;23.362;2023-10-19T03:51:16;13.43;;;7.35;;
10126;SDS011;13080;42.608;23.362;2023-10-19T03:53:43;14.00;;;7.50;;
10126;SDS011;13080;42.608;23.362;2023-10-19T03:56:14;12.45;;;6.88;;
10126;SDS011;13080;42.608;23.362;2023-10-19T03:58:42;12.45;;;7.60;;
10126;SDS011;13080;42.608;23.362;2023-10-19T04:01:16;21.75;;;11.10;;
10126;SDS011;13080;42.608;23.362;2023-10-19T04:03:45;30.90;;;16.08;;
10126;SDS011;13080;42.608;23.362;2023-10-19T04:06:12;24.38;;;12.60;;
10126;SDS011;13080;42.608;23.362;2023-10-19T04:08:40;16.63;;;10.18;;
10126;SDS011;13080;42.608;23.362;2023-10-19T04:11:08;12.23;;;8.10;;
10126;SDS011;13080;42.608;23.362;2023-10-19T04:13:37;12.85;;;7.13;;
10126;SDS011;13080;42.608;23.362;2023-10-19T04:16:04;15.65;;;8.02;;
10126;SDS011;13080;42.608;23.362;2023-10-19T04:18:35;10.95;;;6.72;;
10126;SDS011;13080;42.608;23.362;2023-10-19T04:21:08;13.98;;;8.52;;
10126;SDS011;13080;42.608;23.362;2023-10-19T04:23:35;12.98;;;7.72;;
10126;SDS011;13080;42.608;23.362;2023-10-19T04:26:02;11.40;;;6.97;;
10126;SDS011;13080;42.608;23.362;2023-10-19T04:28:36;13.30;;;8.02;;
10126;SDS011;13080;42.608;23.362;2023-10-19T04:31:09;13.98;;;7.63;;
10126;SDS011;13080;42.608;23.362;2023-10-19T04:33:41;10.00;;;6.43;;
10126;SDS011;13080;42.608;23.362;2023-10-19T04:38:39;11.52;;;6.60;;
10126;SDS011;13080;42.608;23.362;2023-10-19T04:41:07;10.45;;;6.30;;
10126;SDS011;13080;42.608;23.362;2023-10-19T04:43:34;12.13;;;7.30;;
10126;SDS011;13080;42.608;23.362;2023-10-19T04:46:06;11.57;;;7.03;;
10126;SDS011;13080;42.608;23.362;2023-10-19T04:48:36;10.45;;;6.55;;
10126;SDS011;13080;42.608;23.362;2023-10-19T04:51:06;10.18;;;7.05;;
10126;SDS011;13080;42.608;23.362;2023-10-19T04:53:34;12.20;;;8.18;;
10126;SDS011;13080;42.608;23.362;2023-10-19T04:56:01;13.25;;;8.05;;
10126;SDS011;13080;42.608;23.362;2023-10-19T04:58:29;11.63;;;7.25;;
10126;SDS011;13080;42.608;23.362;2023-10-19T05:00:56;9.38;;;6.63;;
10126;SDS011;13080;42.608;23.362;2023-10-19T05:03:24;21.10;;;10.82;;
10126;SDS011;13080;42.608;23.362;2023-10-19T05:05:53;15.00;;;8.60;;
10126;SDS011;13080;42.608;23.362;2023-10-19T05:08:23;13.50;;;7.72;;
10126;SDS011;13080;42.608;23.362;2023-10-19T05:10:51;12.20;;;7.13;;
10126;SDS011;13080;42.608;23.362;2023-10-19T05:13:19;9.80;;;5.88;;
10126;SDS011;13080;42.608;23.362;2023-10-19T05:15:46;12.55;;;6.95;;
10126;SDS011;13080;42.608;23.362;2023-10-19T05:18:13;12.38;;;6.30;;
10126;SDS011;13080;42.608;23.362;2023-10-19T05:20:40;12.68;;;6.88;;
10126;SDS011;13080;42.608;23.362;2023-10-19T05:23:06;9.90;;;6.30;;
10126;SDS011;13080;42.608;23.362;2023-10-19T05:25:35;10.85;;;6.97;;
10126;SDS011;13080;42.608;23.362;2023-10-19T05:28:03;13.00;;;7.25;;
10126;SDS011;13080;42.608;23.362;2023-10-19T05:30:31;12.10;;;7.65;;
10126;SDS011;13080;42.608;23.362;2023-10-19T05:32:58;13.70;;;8.02;;
10126;SDS011;13080;42.608;23.362;2023-10-19T05:35:26;13.57;;;7.88;;
10126;SDS011;13080;42.608;23.362;2023-10-19T05:37:54;12.70;;;7.55;;
10126;SDS011;13080;42.608;23.362;2023-10-19T05:40:22;13.20;;;7.85;;
10126;SDS011;13080;42.608;23.362;2023-10-19T05:42:51;12.95;;;7.88;;
10126;SDS011;13080;42.608;23.362;2023-10-19T05:45:17;11.45;;;7.32;;
10126;SDS011;13080;42.608;23.362;2023-10-19T05:47:44;13.25;;;7.70;;
10126;SDS011;13080;42.608;23.362;2023-10-19T05:50:11;11.95;;;7.45;;
10126;SDS011;13080;42.608;23.362;2023-10-19T05:52:40;11.23;;;7.00;;
10126;SDS011;13080;42.608;23.362;2023-10-19T05:55:08;14.05;;;7.75;;
10126;SDS011;13080;42.608;23.362;2023-10-19T05:57:36;15.38;;;8.75;;
10126;SDS011;13080;42.608;23.362;2023-10-19T06:00:08;38.47;;;19.02;;
10126;SDS011;13080;42.608;23.362;2023-10-19T06:02:39;21.52;;;12.88;;
10126;SDS011;13080;42.608;23.362;2023-10-19T06:05:10;16.95;;;9.27;;
10126;SDS011;13080;42.608;23.362;2023-10-19T06:07:37;22.90;;;11.20;;
10126;SDS011;13080;42.608;23.362;2023-10-19T06:10:04;23.52;;;10.52;;
10126;SDS011;13080;42.608;23.362;2023-10-19T06:12:32;18.95;;;9.60;;
10126;SDS011;13080;42.608;23.362;2023-10-19T06:14:59;19.55;;;11.40;;
10126;SDS011;13080;42.608;23.362;2023-10-19T06:17:30;19.50;;;11.43;;
10126;SDS011;13080;42.608;23.362;2023-10-19T06:19:56;20.00;;;11.05;;
10126;SDS011;13080;42.608;23.362;2023-10-19T06:22:23;17.67;;;11.00;;
10126;SDS011;13080;42.608;23.362;2023-10-19T06:24:50;16.75;;;10.30;;
10126;SDS011;13080;42.608;23.362;2023-10-19T06:27:17;18.05;;;10.38;;
10126;SDS011;13080;42.608;23.362;2023-10-19T06:29:44;17.75;;;9.85;;
10126;SDS011;13080;42.608;23.362;2023-10-19T06:32:11;15.95;;;9.73;;
10126;SDS011;13080;42.608;23.362;2023-10-19T06:34:40;17.80;;;11.43;;
10126;SDS011;13080;42.608;23.362;2023-10-19T06:37:07;15.15;;;9.35;;
10126;SDS011;13080;42.608;23.362;2023-10-19T06:39:35;13.85;;;8.90;;
10126;SDS011;13080;42.608;23.362;2023-10-19T06:42:06;13.35;;;8.23;;
10126;SDS011;13080;42.608;23.362;2023-10-19T06:44:39;13.18;;;8.38;;
10126;SDS011;13080;42.608;23.362;2023-10-19T06:47:07;10.95;;;7.30;;
10126;SDS011;13080;42.608;23.362;2023-10-19T06:49:34;12.75;;;8.25;;
10126;SDS011;13080;42.608;23.362;2023-10-19T06:52:02;12.73;;;7.47;;
10126;SDS011;13080;42.608;23.362;2023-10-19T06:54:30;12.70;;;7.80;;
10126;SDS011;13080;42.608;23.362;2023-10-19T06:56:57;11.43;;;7.32;;
10126;SDS011;13080;42.608;23.362;2023-10-19T06:59:24;12.45;;;7.55;;
10126;SDS011;13080;42.608;23.362;2023-10-19T07:01:50;12.13;;;6.70;;
10126;SDS011;13080;42.608;23.362;2023-10-19T07:04:17;11.52;;;6.82;;
10126;SDS011;13080;42.608;23.362;2023-10-19T07:06:44;11.95;;;6.70;;
10126;SDS011;13080;42.608;23.362;2023-10-19T07:09:14;8.90;;;5.97;;
10126;SDS011;13080;42.608;23.362;2023-10-19T07:11:41;15.32;;;8.88;;
10126;SDS011;13080;42.608;23.362;2023-10-19T07:14:10;13.70;;;5.80;;
10126;SDS011;13080;42.608;23.362;2023-10-19T07:16:38;9.88;;;6.10;;
10126;SDS011;13080;42.608;23.362;2023-10-19T07:19:06;9.57;;;5.95;;
10126;SDS011;13080;42.608;23.362;2023-10-19T07:21:34;9.75;;;5.70;;
10126;SDS011;13080;42.608;23.362;2023-10-19T07:24:03;9.18;;;5.43;;
10126;SDS011;13080;42.608;23.362;2023-10-19T07:26:35;19.00;;;10.77;;
10126;SDS011;13080;42.608;23.362;2023-10-19T07:29:08;10.75;;;5.13;;
10126;SDS011;13080;42.608;23.362;2023-10-19T07:31:40;7.03;;;4.53;;
10126;SDS011;13080;42.608;23.362;2023-10-19T07:34:06;7.20;;;4.53;;
10126;SDS011;13080;42.608;23.362;2023-10-19T07:36:33;6.18;;;4.10;;
10126;SDS011;13080;42.608;23.362;2023-10-19T07:39:02;7.47;;;5.13;;
10126;SDS011;13080;42.608;23.362;2023-10-19T07:41:29;6.60;;;4.80;;
10126;SDS011;13080;42.608;23.362;2023-10-19T07:44:03;11.48;;;5.10;;
10126;SDS011;13080;42.608;23.362;2023-10-19T07:46:30;8.05;;;4.80;;
10126;SDS011;13080;42.608;23.362;2023-10-19T07:48:56;7.78;;;4.90;;
10126;SDS011;13080;42.608;23.362;2023-10-19T07:51:24;8.82;;;4.68;;
10126;SDS011;13080;42.608;23.362;2023-10-19T07:53:51;6.90;;;4.95;;
10126;SDS011;13080;42.608;23.362;2023-10-19T07:56:18;7.28;;;5.05;;
10126;SDS011;13080;42.608;23.362;2023-10-19T07:58:46;6.90;;;4.80;;
10126;SDS011;13080;42.608;23.362;2023-10-19T08:01:14;7.07;;;4.82;;
10126;SDS011;13080;42.608;23.362;2023-10-19T08:03:41;12.20;;;5.60;;
10126;SDS011;13080;42.608;23.362;2023-10-19T08:06:08;7.93;;;5.15;;
10126;SDS011;13080;42.608;23.362;2023-10-19T08:08:35;8.05;;;5.15;;
10126;SDS011;13080;42.608;23.362;2023-10-19T08:11:02;8.88;;;5.45;;
10126;SDS011;13080;42.608;23.362;2023-10-19T08:13:28;10.35;;;6.10;;
10126;SDS011;13080;42.608;23.362;2023-10-19T08:15:57;9.18;;;6.07;;
10126;SDS011;13080;42.608;23.362;2023-10-19T08:18:25;10.07;;;6.10;;
10126;SDS011;13080;42.608;23.362;2023-10-19T08:20:52;10.40;;;6.68;;
10126;SDS011;13080;42.608;23.362;2023-10-19T08:23:19;11.55;;;6.75;;
10126;SDS011;13080;42.608;23.362;2023-10-19T08:25:48;13.60;;;7.65;;
10126;SDS011;13080;42.608;23.362;2023-10-19T08:28:16;9.30;;;5.68;;
10126;SDS011;13080;42.608;23.362;2023-10-19T08:30:43;8.65;;;5.75;;
10126;SDS011;13080;42.608;23.362;2023-10-19T08:35:52;9.68;;;6.07;;
10126;SDS011;13080;42.608;23.362;2023-10-19T08:38:20;8.13;;;5.78;;
10126;SDS011;13080;42.608;23.362;2023-10-19T08:40:47;11.18;;;6.85;;
10126;SDS011;13080;42.608;23.362;2023-10-19T08:43:15;10.50;;;6.25;;
10126;SDS011;13080;42.608;23.362;2023-10-19T08:45:43;13.35;;;6.75;;
10126;SDS011;13080;42.608;23.362;2023-10-19T08:48:11;10.82;;;6.53;;
10126;SDS011;13080;42.608;23.362;2023-10-19T08:50:38;15.60;;;6.65;;
10126;SDS011;13080;42.608;23.362;2023-10-19T08:53:06;9.68;;;5.78;;
10126;SDS011;13080;42.608;23.362;2023-10-19T08:55:35;11.02;;;6.72;;
10126;SDS011;13080;42.608;23.362;2023-10-19T08:58:02;8.48;;;5.57;;
10126;SDS011;13080;42.608;23.362;2023-10-19T09:00:42;11.05;;;6.28;;
10126;SDS011;13080;42.608;23.362;2023-10-19T09:03:12;8.90;;;5.65;;
10126;SDS011;13080;42.608;23.362;2023-10-19T09:05:41;9.70;;;6.55;;
10126;SDS011;13080;42.608;23.362;2023-10-19T09:08:10;9.50;;;6.18;;
10126;SDS011;13080;42.608;23.362;2023-10-19T09:10:42;10.73;;;5.68;;
10126;SDS011;13080;42.608;23.362;2023-10-19T09:13:10;8.93;;;5.20;;
10126;SDS011;13080;42.608;23.362;2023-10-19T09:15:39;10.88;;;4.97;;
10126;SDS011;13080;42.608;23.362;2023-10-19T09:18:13;11.30;;;5.70;;
10126;SDS011;13080;42.608;23.362;2023-10-19T09:20:41;8.48;;;4.85;;
10126;SDS011;13080;42.608;23.362;2023-10-19T09:23:19;10.10;;;6.13;;
10126;SDS011;13080;42.608;23.362;2023-10-19T09:25:47;6.90;;;4.60;;
10126;SDS011;13080;42.608;23.362;2023-10-19T09:28:15;5.68;;;3.97;;
10126;SDS011;13080;42.608;23.362;2023-10-19T09:30:42;6.10;;;4.03;;
10126;SDS011;13080;42.608;23.362;2023-10-19T09:33:09;7.13;;;4.00;;
10126;SDS011;13080;42.608;23.362;2023-10-19T09:35:39;7.25;;;4.60;;
10126;SDS011;13080;42.608;23.362;2023-10-19T09:38:08;6.45;;;4.55;;
10126;SDS011;13080;42.608;23.362;2023-10-19T09:40:37;9.43;;;4.82;;
10126;SDS011;13080;42.608;23.362;2023-10-19T09:43:04;6.93;;;4.57;;
10126;SDS011;13080;42.608;23.362;2023-10-19T09:45:36;6.38;;;4.07;;
10126;SDS011;13080;42.608;23.362;2023-10-19T09:48:08;8.27;;;4.43;;
10126;SDS011;13080;42.608;23.362;2023-10-19T09:50:42;6.75;;;4.25;;
10126;SDS011;13080;42.608;23.362;2023-10-19T09:53:10;9.77;;;4.45;;
10126;SDS011;13080;42.608;23.362;2023-10-19T09:55:40;5.22;;;4.13;;
10126;SDS011;13080;42.608;23.362;2023-10-19T09:58:10;7.35;;;4.60;;
10126;SDS011;13080;42.608;23.362;2023-10-19T10:00:42;8.20;;;4.32;;
10126;SDS011;13080;42.608;23.362;2023-10-19T10:06:11;9.02;;;4.53;;
10126;SDS011;13080;42.608;23.362;2023-10-19T10:08:39;7.82;;;5.03;;
10126;SDS011;13080;42.608;23.362;2023-10-19T10:11:18;9.93;;;5.47;;
10126;SDS011;13080;42.608;23.362;2023-10-19T10:13:47;7.75;;;4.82;;
10126;SDS011;13080;42.608;23.362;2023-10-19T10:16:17;8.98;;;5.10;;
10126;SDS011;13080;42.608;23.362;2023-10-19T10:18:46;8.60;;;5.32;;
10126;SDS011;13080;42.608;23.362;2023-10-19T10:21:16;9.52;;;5.28;;
10126;SDS011;13080;42.608;23.362;2023-10-19T10:23:46;8.82;;;5.13;;
10126;SDS011;13080;42.608;23.362;2023-10-19T10:26:14;10.80;;;5.78;;
10126;SDS011;13080;42.608;23.362;2023-10-19T10:28:46;7.82;;;5.57;;
10126;SDS011;13080;42.608;23.362;2023-10-19T10:31:16;8.00;;;5.55;;
10126;SDS011;13080;42.608;23.362;2023-10-19T10:33:47;8.15;;;5.20;;
10126;SDS011;13080;42.608;23.362;2023-10-19T10:36:16;6.78;;;4.75;;
10126;SDS011;13080;42.608;23.362;2023-10-19T10:38:44;19.30;;;9.60;;
10126;SDS011;13080;42.608;23.362;2023-10-19T10:41:12;7.78;;;5.13;;
10126;SDS011;13080;42.608;23.362;2023-10-19T10:43:53;11.40;;;5.28;;
10126;SDS011;13080;42.608;23.362;2023-10-19T10:46:21;8.40;;;5.30;;
10126;SDS011;13080;42.608;23.362;2023-10-19T10:48:49;9.15;;;4.90;;
10126;SDS011;13080;42.608;23.362;2023-10-19T10:51:20;8.13;;;5.75;;
10126;SDS011;13080;42.608;23.362;2023-10-19T10:53:48;9.27;;;5.38;;
10126;SDS011;13080;42.608;23.362;2023-10-19T10:56:16;13.55;;;7.20;;
10126;SDS011;13080;42.608;23.362;2023-10-19T10:58:44;19.65;;;7.90;;
10126;SDS011;13080;42.608;23.362;2023-10-19T11:01:13;8.73;;;5.43;;
10126;SDS011;13080;42.608;23.362;2023-10-19T11:03:41;7.50;;;5.43;;
10126;SDS011;13080;42.608;23.362;2023-10-19T11:06:08;10.23;;;5.15;;
10126;SDS011;13080;42.608;23.362;2023-10-19T11:08:36;7.80;;;5.00;;
10126;SDS011;13080;42.608;23.362;2023-10-19T11:11:05;8.93;;;5.18;;
10126;SDS011;13080;42.608;23.362;2023-10-19T11:13:32;7.43;;;5.18;;
10126;SDS011;13080;42.608;23.362;2023-10-19T11:16:01;7.28;;;4.43;;
10126;SDS011;13080;42.608;23.362;2023-10-19T11:18:33;7.82;;;5.30;;
10126;SDS011;13080;42.608;23.362;2023-10-19T11:21:02;6.50;;;4.85;;
10126;SDS011;13080;42.608;23.362;2023-10-19T11:23:39;9.57;;;5.28;;
10126;SDS011;13080;42.608;23.362;2023-10-19T11:26:07;7.32;;;4.45;;
10126;SDS011;13080;42.608;23.362;2023-10-19T11:28:35;7.13;;;4.07;;
10126;SDS011;13080;42.608;23.362;2023-10-19T11:31:15;6.97;;;4.45;;
10126;SDS011;13080;42.608;23.362;2023-10-19T11:33:44;7.03;;;5.03;;
10126;SDS011;13080;42.608;23.362;2023-10-19T11:36:13;6.22;;;3.95;;
10126;SDS011;13080;42.608;23.362;2023-10-19T11:38:41;6.95;;;4.53;;
10126;SDS011;13080;42.608;23.362;2023-10-19T11:41:08;7.35;;;4.53;;
10126;SDS011;13080;42.608;23.362;2023-10-19T11:43:36;8.55;;;5.20;;
10126;SDS011;13080;42.608;23.362;2023-10-19T11:46:02;8.43;;;5.03;;
10126;SDS011;13080;42.608;23.362;2023-10-19T11:48:31;9.30;;;5.28;;
10126;SDS011;13080;42.608;23.362;2023-10-19T11:51:00;6.40;;;4.32;;
10126;SDS011;13080;42.608;23.362;2023-10-19T11:53:29;8.38;;;4.97;;
10126;SDS011;13080;42.608;23.362;2023-10-19T11:55:59;7.32;;;5.20;;
10126;SDS011;13080;42.608;23.362;2023-10-19T11:58:29;8.23;;;5.68;;
10126;SDS011;13080;42.608;23.362;2023-10-19T12:00:57;12.20;;;5.70;;
10126;SDS011;13080;42.608;23.362;2023-10-19T12:03:24;10.38;;;5.38;;
10126;SDS011;13080;42.608;23.362;2023-10-19T12:05:51;7.43;;;5.20;;
10126;SDS011;13080;42.608;23.362;2023-10-19T12:08:21;7.57;;;5.05;;
10126;SDS011;13080;42.608;23.362;2023-10-19T12:10:49;8.40;;;5.13;;
10126;SDS011;13080;42.608;23.362;2023-10-19T12:13:17;7.20;;;5.13;;
10126;SDS011;13080;42.608;23.362;2023-10-19T12:15:44;14.32;;;5.55;;
10126;SDS011;13080;42.608;23.362;2023-10-19T12:18:17;11.00;;;5.93;;
10126;SDS011;13080;42.608;23.362;2023-10-19T12:20:44;9.30;;;5.53;;
10126;SDS011;13080;42.608;23.362;2023-10-19T12:23:12;8.05;;;5.45;;
10126;SDS011;13080;42.608;23.362;2023-10-19T12:25:41;6.78;;;4.93;;
10126;SDS011;13080;42.608;23.362;2023-10-19T12:28:08;8.85;;;5.50;;
10126;SDS011;13080;42.608;23.362;2023-10-19T12:30:39;9.25;;;5.22;;
10126;SDS011;13080;42.608;23.362;2023-10-19T12:33:07;11.85;;;6.15;;
10126;SDS011;13080;42.608;23.362;2023-10-19T12:35:36;7.28;;;5.43;;
10126;SDS011;13080;42.608;23.362;2023-10-19T12:38:16;7.68;;;4.88;;
10126;SDS011;13080;42.608;23.362;2023-10-19T12:40:47;6.18;;;4.82;;
10126;SDS011;13080;42.608;23.362;2023-10-19T12:43:15;7.47;;;5.20;;
10126;SDS011;13080;42.608;23.362;2023-10-19T12:45:44;9.63;;;4.97;;
10126;SDS011;13080;42.608;23.362;2023-10-19T12:48:16;9.68;;;4.72;;
10126;SDS011;13080;42.608;23.362;2023-10-19T12:50:43;9.98;;;5.53;;
10126;SDS011;13080;42.608;23.362;2023-10-19T12:53:10;9.35;;;4.68;;
10126;SDS011;13080;42.608;23.362;2023-10-19T12:55:39;7.22;;;5.05;;
10126;SDS011;13080;42.608;23.362;2023-10-19T12:58:09;9.13;;;5.50;;
10126;SDS011;13080;42.608;23.362;2023-10-19T13:00:37;8.40;;;4.55;;
10126;SDS011;13080;42.608;23.362;2023-10-19T13:03:09;10.25;;;5.57;;
10126;SDS011;13080;42.608;23.362;2023-10-19T13:05:39;6.88;;;5.07;;
10126;SDS011;13080;42.608;23.362;2023-10-19T13:08:06;7.63;;;5.57;;
10126;SDS011;13080;42.608;23.362;2023-10-19T13:10:34;8.02;;;5.35;;
10126;SDS011;13080;42.608;23.362;2023-10-19T13:13:05;9.63;;;5.80;;
10126;SDS011;13080;42.608;23.362;2023-10-19T13:15:38;9.45;;;5.13;;
10126;SDS011;13080;42.608;23.362;2023-10-19T13:18:07;8.57;;;5.00;;
10126;SDS011;13080;42.608;23.362;2023-10-19T13:20:36;7.97;;;4.88;;
10126;SDS011;13080;42.608;23.362;2023-10-19T13:23:04;10.65;;;5.40;;
10126;SDS011;13080;42.608;23.362;2023-10-19T13:25:36;9.27;;;5.70;;
10126;SDS011;13080;42.608;23.362;2023-10-19T13:28:12;10.68;;;5.63;;
10126;SDS011;13080;42.608;23.362;2023-10-19T13:30:41;7.57;;;5.15;;
10126;SDS011;13080;42.608;23.362;2023-10-19T13:33:09;9.90;;;5.78;;
10126;SDS011;13080;42.608;23.362;2023-10-19T13:35:36;8.57;;;5.55;;
10126;SDS011;13080;42.608;23.362;2023-10-19T13:38:04;8.30;;;5.60;;
10126;SDS011;13080;42.608;23.362;2023-10-19T13:40:33;6.03;;;5.05;;
10126;SDS011;13080;42.608;23.362;2023-10-19T13:43:00;9.43;;;5.20;;
10126;SDS011;13080;42.608;23.362;2023-10-19T13:45:26;7.30;;;5.20;;
10126;SDS011;13080;42.608;23.362;2023-10-19T13:47:55;10.98;;;6.40;;
10126;SDS011;13080;42.608;23.362;2023-10-19T13:50:22;10.57;;;5.90;;
10126;SDS011;13080;42.608;23.362;2023-10-19T13:52:50;9.52;;;6.07;;
10126;SDS011;13080;42.608;23.362;2023-10-19T13:55:18;7.53;;;5.28;;
10126;SDS011;13080;42.608;23.362;2023-10-19T13:57:45;11.23;;;6.18;;
10126;SDS011;13080;42.608;23.362;2023-10-19T14:00:13;9.35;;;5.63;;
10126;SDS011;13080;42.608;23.362;2023-10-19T14:02:45;8.73;;;5.68;;
10126;SDS011;13080;42.608;23.362;2023-10-19T14:05:14;10.68;;;6.53;;
10126;SDS011;13080;42.608;23.362;2023-10-19T14:07:41;12.68;;;7.50;;
10126;SDS011;13080;42.608;23.362;2023-10-19T14:10:09;13.07;;;6.28;;
10126;SDS011;13080;42.608;23.362;2023-10-19T14:12:38;16.38;;;5.88;;
10126;SDS011;13080;42.608;23.362;2023-10-19T14:15:08;8.80;;;5.25;;
10126;SDS011;13080;42.608;23.362;2023-10-19T14:17:39;7.18;;;5.50;;
10126;SDS011;13080;42.608;23.362;2023-10-19T14:20:06;15.63;;;6.57;;
10126;SDS011;13080;42.608;23.362;2023-10-19T14:22:38;9.68;;;5.50;;
10126;SDS011;13080;42.608;23.362;2023-10-19T14:25:06;10.15;;;5.03;;
10126;SDS011;13080;42.608;23.362;2023-10-19T14:27:37;10.07;;;4.93;;
10126;SDS011;13080;42.608;23.362;2023-10-19T14:30:06;9.63;;;4.93;;
10126;SDS011;13080;42.608;23.362;2023-10-19T14:32:35;9.55;;;6.07;;
10126;SDS011;13080;42.608;23.362;2023-10-19T14:35:02;9.30;;;5.47;;
10126;SDS011;13080;42.608;23.362;2023-10-19T14:37:31;9.35;;;5.57;;
10126;SDS011;13080;42.608;23.362;2023-10-19T14:39:59;6.00;;;4.38;;
10126;SDS011;13080;42.608;23.362;2023-10-19T14:42:26;6.88;;;4.60;;
10126;SDS011;13080;42.608;23.362;2023-10-19T14:44:56;5.80;;;3.78;;
10126;SDS011;13080;42.608;23.362;2023-10-19T14:47:22;6.50;;;3.67;;
10126;SDS011;13080;42.608;23.362;2023-10-19T14:49:49;10.80;;;4.20;;
10126;SDS011;13080;42.608;23.362;2023-10-19T14:52:17;9.45;;;4.75;;